createdAt,value
2024-03-24T00:02:33.977Z,3.80
2024-03-24T00:07:42.820Z,3.92
2024-03-24T00:12:55.602Z,3.98
2024-03-24T00:18:01.539Z,4.04
2024-03-24T00:23:16.819Z,4.02
2024-03-24T00:28:28.389Z,3.94
2024-03-24T00:33:38.399Z,4.07
2024-03-24T00:38:43.485Z,4.13
2024-03-24T00:43:55.837Z,4.18
2024-03-24T00:49:10.736Z,4.23
2024-03-24T00:54:23.170Z,4.21
2024-03-24T00:59:32.257Z,4.18
2024-03-24T01:04:42.088Z,4.17
2024-03-24T01:09:55.693Z,4.16
2024-03-24T01:15:04.120Z,4.22
2024-03-24T01:20:16.123Z,4.15
2024-03-24T01:25:28.323Z,4.16
2024-03-24T01:30:41.220Z,4.25
2024-03-24T01:35:50.327Z,4.26
2024-03-24T01:40:59.814Z,4.22
2024-03-24T01:46:07.902Z,3.91
2024-03-24T01:51:14.261Z,4.09
2024-03-24T01:56:21.975Z,4.20
2024-03-24T02:01:29.416Z,4.20
2024-03-24T02:06:34.899Z,4.08
2024-03-24T02:11:40.434Z,4.23
2024-03-24T02:16:53.636Z,4.22
2024-03-24T02:22:04.974Z,4.26
2024-03-24T02:32:33.493Z,4.23
2024-03-24T02:37:43.075Z,4.30
2024-03-24T02:42:52.123Z,4.24
2024-03-24T02:47:58.047Z,4.13
2024-03-24T02:53:07.947Z,3.99
2024-03-24T02:58:23.717Z,3.97
2024-03-24T03:03:28.797Z,3.98
2024-03-24T03:08:33.791Z,4.07
2024-03-24T03:13:50.234Z,4.07
2024-03-24T03:19:01.687Z,4.08
2024-03-24T03:24:06.994Z,4.11
2024-03-24T03:29:20.507Z,4.16
2024-03-24T03:34:34.138Z,4.16
2024-03-24T03:39:38.703Z,4.15
2024-03-24T03:44:50.572Z,4.15
2024-03-24T03:50:03.920Z,4.18
2024-03-24T03:55:13.126Z,4.22
2024-03-24T04:00:22.554Z,4.31
2024-03-24T04:05:33.439Z,4.32
2024-03-24T04:10:40.778Z,4.29
2024-03-24T04:21:05.570Z,4.36
2024-03-24T04:26:12.601Z,4.40
2024-03-24T04:31:24.785Z,4.38
2024-03-24T04:36:31.960Z,4.55
2024-03-24T04:41:45.172Z,4.64
2024-03-24T04:46:53.191Z,4.70
2024-03-24T04:52:08.107Z,4.68
2024-03-24T04:57:14.713Z,4.71
2024-03-24T05:02:23.074Z,4.66
2024-03-24T05:07:39.883Z,4.68
2024-03-24T05:12:54.465Z,4.82
2024-03-24T05:23:19.346Z,4.92
2024-03-24T05:28:35.459Z,4.90
2024-03-24T05:33:53.918Z,4.96
2024-03-24T05:39:08.585Z,5.09
2024-03-24T05:44:14.577Z,5.19
2024-03-24T05:49:21.375Z,5.23
2024-03-24T05:54:32.737Z,5.33
2024-03-24T05:59:40.364Z,5.45
2024-03-24T06:04:51.868Z,5.55
2024-03-24T06:10:02.948Z,5.54
2024-03-24T06:15:09.950Z,5.53
2024-03-24T06:20:22.868Z,5.68
2024-03-24T06:25:42.372Z,5.73
2024-03-24T06:30:53.966Z,5.73
2024-03-24T06:36:05.150Z,5.86
2024-03-24T06:41:16.633Z,5.74
2024-03-24T06:46:24.183Z,5.65
2024-03-24T06:51:35.148Z,5.77
2024-03-24T06:56:40.278Z,5.77
2024-03-24T07:01:46.107Z,5.78
2024-03-24T07:12:10.182Z,6.09
2024-03-24T07:17:26.020Z,6.17
2024-03-24T07:22:39.731Z,6.43
2024-03-24T07:27:48.857Z,6.48
2024-03-24T07:32:53.788Z,6.42
2024-03-24T07:38:02.503Z,6.21
2024-03-24T07:43:12.430Z,5.97
2024-03-24T07:48:18.515Z,6.00
2024-03-24T07:53:25.827Z,5.98
2024-03-24T07:58:30.863Z,5.77
2024-03-24T08:03:46.180Z,5.82
2024-03-24T08:08:58.189Z,6.00
2024-03-24T08:14:03.353Z,6.04
2024-03-24T08:19:10.818Z,5.98
2024-03-24T08:24:18.963Z,6.11
2024-03-24T08:29:29.475Z,6.15
2024-03-24T08:34:41.808Z,6.02
2024-03-24T08:39:52.119Z,6.04
2024-03-24T08:44:56.653Z,6.00
2024-03-24T08:50:03.244Z,6.31
2024-03-24T08:55:14.743Z,6.48
2024-03-24T09:00:21.608Z,6.36
2024-03-24T09:05:27.790Z,6.20
2024-03-24T09:10:35.309Z,6.18
2024-03-24T09:15:45.153Z,6.10
2024-03-24T09:20:50.028Z,5.70
2024-03-24T09:25:58.808Z,5.42
2024-03-24T09:31:04.603Z,5.38
2024-03-24T09:36:13.282Z,5.43
2024-03-24T09:41:42.721Z,5.67
2024-03-24T09:47:00.448Z,5.56
2024-03-24T09:52:08.272Z,5.55
2024-03-24T09:57:21.327Z,5.57
2024-03-24T10:02:27.622Z,5.76
2024-03-24T10:07:38.529Z,5.78
2024-03-24T10:12:55.772Z,6.02
2024-03-24T10:18:07.792Z,6.03
2024-03-24T10:23:18.029Z,6.00
2024-03-24T10:28:29.755Z,6.12
2024-03-24T10:33:46.772Z,6.18
2024-03-24T10:38:52.870Z,5.84
2024-03-24T10:44:11.137Z,6.06
2024-03-24T10:49:22.019Z,5.95
2024-03-24T10:54:30.272Z,5.95
2024-03-24T10:59:45.924Z,5.86
2024-03-24T11:04:51.963Z,5.94
2024-03-24T11:09:59.642Z,5.95
2024-03-24T11:15:07.800Z,5.72
2024-03-24T11:20:27.148Z,5.95
2024-03-24T11:31:03.339Z,5.92
2024-03-24T11:36:23.520Z,5.92
2024-03-24T11:41:28.455Z,5.95
2024-03-24T11:46:42.825Z,5.91
2024-03-24T11:51:52.605Z,6.29
2024-03-24T11:57:01.186Z,6.27
2024-03-24T12:02:08.274Z,6.26
2024-03-24T12:07:14.895Z,6.11
2024-03-24T12:12:20.229Z,6.27
2024-03-24T12:17:33.402Z,6.10
2024-03-24T12:22:41.831Z,6.05
2024-03-24T12:27:51.940Z,5.98
2024-03-24T12:32:59.656Z,6.04
2024-03-24T12:47:41.323Z,6.01
2024-03-24T12:52:47.080Z,6.11
2024-03-24T12:58:03.640Z,5.86
2024-03-24T13:03:15.042Z,6.34
2024-03-24T13:08:23.115Z,6.27
2024-03-24T13:13:38.951Z,6.29
2024-03-24T13:18:51.134Z,6.33
2024-03-24T13:23:59.790Z,6.35
2024-03-24T13:29:05.511Z,6.36
2024-03-24T13:34:22.274Z,6.44
2024-03-24T13:39:46.427Z,6.26
2024-03-24T13:45:04.910Z,6.17
2024-03-24T13:50:14.259Z,6.15
2024-03-24T13:55:20.708Z,6.17
2024-03-24T14:00:31.296Z,6.25
2024-03-24T14:05:39.450Z,6.09
2024-03-24T14:10:59.901Z,6.12
2024-03-24T14:21:40.551Z,5.89
2024-03-24T14:26:50.860Z,5.88
2024-03-24T14:31:57.609Z,5.91
2024-03-24T14:37:22.895Z,5.83
2024-03-24T14:42:39.190Z,5.78
2024-03-24T14:53:19.306Z,5.75
2024-03-24T14:58:25.914Z,5.74
2024-03-24T15:03:34.042Z,5.66
2024-03-24T15:08:51.129Z,5.71
2024-03-24T15:14:00.755Z,5.59
2024-03-24T15:19:07.778Z,5.54
2024-03-24T15:24:20.555Z,5.56
2024-03-24T15:29:25.692Z,5.27
2024-03-24T15:34:37.324Z,5.52
2024-03-24T15:39:47.894Z,5.56
2024-03-24T15:44:52.770Z,5.56
2024-03-24T15:49:58.020Z,5.58
2024-03-24T15:55:05.491Z,5.56
2024-03-24T16:00:20.538Z,5.47
2024-03-24T16:05:27.461Z,5.53
2024-03-24T16:10:59.858Z,5.52
2024-03-24T16:16:17.299Z,5.45
2024-03-24T16:21:44.051Z,5.30
2024-03-24T16:26:50.748Z,5.36
2024-03-24T16:32:03.094Z,5.35
2024-03-24T16:37:12.064Z,5.36
2024-03-24T16:42:24.754Z,5.37
2024-03-24T16:52:53.006Z,5.34
2024-03-24T16:58:05.203Z,5.34
2024-03-24T17:03:16.363Z,5.37
2024-03-24T17:08:24.248Z,5.33
2024-03-24T17:13:34.378Z,5.34
2024-03-24T17:18:39.528Z,5.33
2024-03-24T17:23:54.831Z,5.19
2024-03-24T17:29:07.520Z,5.19
2024-03-24T17:34:12.147Z,5.33
2024-03-24T17:39:32.587Z,5.20
2024-03-24T17:44:40.084Z,5.18
2024-03-24T17:49:47.931Z,5.23
2024-03-24T17:54:53.031Z,5.23
2024-03-24T18:00:07.662Z,5.24
2024-03-24T18:05:18.182Z,5.28
2024-03-24T18:10:29.913Z,5.29
2024-03-24T18:15:39.522Z,5.27
2024-03-24T18:20:57.383Z,5.23
2024-03-24T18:26:04.387Z,5.18
2024-03-24T18:31:19.000Z,5.26
2024-03-24T18:36:28.883Z,5.25
2024-03-24T18:47:00.409Z,5.32
2024-03-24T18:52:08.098Z,5.30
2024-03-24T18:57:18.748Z,5.20
2024-03-24T19:02:32.959Z,5.23
2024-03-24T19:07:37.842Z,5.31
2024-03-24T19:12:43.805Z,5.23
2024-03-24T19:23:18.080Z,5.25
2024-03-24T19:28:24.721Z,5.23
2024-03-24T19:33:33.141Z,5.24
2024-03-24T19:38:43.486Z,5.24
2024-03-24T19:43:54.278Z,5.23
2024-03-24T19:49:01.319Z,5.24
2024-03-24T19:54:07.223Z,5.27
2024-03-24T19:59:20.968Z,5.31
2024-03-24T20:04:33.273Z,5.31
2024-03-24T20:09:42.965Z,5.29
2024-03-24T20:14:47.681Z,5.23
2024-03-24T20:19:54.718Z,5.37
2024-03-24T20:25:05.738Z,5.24
2024-03-24T20:30:11.987Z,5.31
2024-03-24T20:35:25.026Z,5.28
2024-03-24T20:40:30.038Z,5.24
2024-03-24T20:45:43.650Z,5.23
2024-03-24T20:50:51.610Z,5.24
2024-03-24T21:01:17.429Z,5.20
2024-03-24T21:06:24.331Z,5.24
2024-03-24T21:11:36.248Z,5.24
2024-03-24T21:16:47.821Z,5.27
2024-03-24T21:27:12.397Z,5.04
2024-03-24T21:32:17.755Z,5.26
2024-03-24T21:37:46.436Z,5.24
2024-03-24T21:42:56.368Z,5.23
2024-03-24T21:48:02.623Z,5.26
2024-03-24T21:53:10.877Z,5.23
2024-03-24T21:58:16.244Z,5.23
2024-03-24T22:03:25.831Z,5.21
2024-03-24T22:08:39.670Z,5.23
2024-03-24T22:13:49.922Z,5.30
2024-03-24T22:18:59.735Z,5.22
2024-03-24T22:24:09.102Z,5.26
2024-03-24T22:29:19.361Z,5.26
2024-03-24T22:34:25.474Z,5.27
2024-03-24T22:44:50.286Z,5.22
2024-03-24T22:49:55.759Z,5.17
2024-03-24T22:55:04.768Z,5.17
2024-03-24T23:00:25.305Z,5.14
2024-03-24T23:05:37.618Z,5.10
2024-03-24T23:10:44.644Z,4.94
2024-03-24T23:15:52.710Z,5.04
2024-03-24T23:20:58.851Z,5.11
2024-03-24T23:26:06.854Z,5.13
2024-03-24T23:31:12.796Z,5.17
2024-03-24T23:36:17.930Z,5.18
2024-03-24T23:41:27.709Z,5.06
2024-03-24T23:46:40.858Z,5.21
2024-03-24T23:51:51.400Z,5.21
2024-03-24T23:57:07.349Z,4.94
